createdAt,value
2018-12-27T00:01:53.466Z,1.63
2018-12-27T00:04:23.288Z,2.80
2018-12-27T00:06:53.502Z,3.43
2018-12-27T00:09:22.826Z,2.80
2018-12-27T00:11:53.309Z,3.60
2018-12-27T00:14:26.170Z,2.80
2018-12-27T00:17:00.237Z,4.07
2018-12-27T00:19:34.635Z,3.20
2018-12-27T00:22:04.876Z,3.47
2018-12-27T00:24:36.332Z,1.90
2018-12-27T00:27:05.936Z,1.90
2018-12-27T00:29:37.181Z,3.10
2018-12-27T00:32:07.226Z,3.87
2018-12-27T00:34:37.021Z,2.53
2018-12-27T00:37:07.762Z,1.70
2018-12-27T00:39:37.955Z,1.93
2018-12-27T00:42:07.019Z,3.27
2018-12-27T00:44:36.892Z,1.57
2018-12-27T00:47:07.522Z,1.47
2018-12-27T00:49:37.275Z,2.60
2018-12-27T00:52:07.046Z,1.83
2018-12-27T00:54:37.405Z,1.50
2018-12-27T00:57:06.989Z,1.50
2018-12-27T00:59:36.542Z,1.40
2018-12-27T01:02:07.504Z,3.00
2018-12-27T01:04:37.024Z,2.50
2018-12-27T01:07:06.866Z,2.40
2018-12-27T01:09:36.430Z,2.23
2018-12-27T01:12:05.969Z,2.80
2018-12-27T01:14:35.338Z,2.17
2018-12-27T01:17:05.313Z,1.50
2018-12-27T01:19:34.862Z,1.80
2018-12-27T01:22:04.875Z,2.60
2018-12-27T01:24:35.091Z,3.03
2018-12-27T01:27:04.788Z,2.00
2018-12-27T01:29:34.359Z,1.93
2018-12-27T01:32:04.320Z,1.80
2018-12-27T01:34:34.002Z,1.20
2018-12-27T01:37:03.387Z,1.20
2018-12-27T01:39:32.885Z,1.00
2018-12-27T01:42:02.407Z,2.43
2018-12-27T01:44:32.149Z,13.33
2018-12-27T01:47:01.748Z,17.63
2018-12-27T01:49:31.015Z,6.03
2018-12-27T01:52:01.246Z,3.27
2018-12-27T01:54:31.515Z,1.90
2018-12-27T01:57:03.157Z,2.67
2018-12-27T01:59:38.058Z,2.47
2018-12-27T02:02:10.852Z,56.13
2018-12-27T02:04:46.825Z,20.37
2018-12-27T02:07:20.590Z,38.97
2018-12-27T02:09:53.671Z,9.90
2018-12-27T02:12:24.607Z,6.73
2018-12-27T02:14:56.928Z,4.70
2018-12-27T02:17:27.353Z,4.73
2018-12-27T02:20:02.412Z,2.23
2018-12-27T02:22:41.187Z,1.57
2018-12-27T02:25:11.139Z,1.83
2018-12-27T02:27:40.886Z,2.40
2018-12-27T02:30:10.685Z,2.47
2018-12-27T02:32:40.236Z,2.40
2018-12-27T02:35:10.425Z,3.33
2018-12-27T02:37:41.422Z,3.70
2018-12-27T02:40:14.326Z,2.40
2018-12-27T02:42:50.626Z,3.20
2018-12-27T02:45:22.885Z,3.03
2018-12-27T02:47:56.713Z,3.83
2018-12-27T02:50:32.631Z,1.40
2018-12-27T02:53:02.964Z,1.50
2018-12-27T02:55:37.781Z,1.40
2018-12-27T02:58:11.173Z,1.10
2018-12-27T03:00:45.713Z,1.50
2018-12-27T03:03:16.628Z,1.50
2018-12-27T03:05:46.087Z,1.57
2018-12-27T03:08:17.286Z,2.13
2018-12-27T03:10:47.948Z,1.40
2018-12-27T03:13:18.661Z,2.23
2018-12-27T03:15:47.948Z,1.70
2018-12-27T03:18:18.739Z,2.03
2018-12-27T03:20:48.572Z,7.53
2018-12-27T03:23:19.122Z,11.33
2018-12-27T03:25:49.282Z,6.27
2018-12-27T03:28:18.767Z,2.53
2018-12-27T03:30:49.733Z,2.70
2018-12-27T03:33:19.951Z,1.97
2018-12-27T03:35:49.364Z,1.73
2018-12-27T03:38:20.256Z,1.33
2018-12-27T03:40:49.683Z,1.70
2018-12-27T03:43:19.094Z,2.60
2018-12-27T03:45:48.876Z,3.40
2018-12-27T03:48:18.339Z,3.40
2018-12-27T03:50:48.837Z,3.57
2018-12-27T03:53:18.376Z,5.03
2018-12-27T03:55:47.999Z,6.67
2018-12-27T03:58:17.368Z,5.83
2018-12-27T04:00:49.132Z,2.43
2018-12-27T04:03:18.936Z,1.40
2018-12-27T04:05:49.052Z,1.20
2018-12-27T04:08:19.165Z,2.07
2018-12-27T04:10:49.731Z,1.40
2018-12-27T04:13:19.658Z,2.33
2018-12-27T04:15:49.490Z,1.60
2018-12-27T04:18:21.487Z,2.70
2018-12-27T04:20:51.210Z,3.50
2018-12-27T04:23:22.109Z,3.40
2018-12-27T04:25:52.325Z,3.23
2018-12-27T04:28:22.960Z,3.77
2018-12-27T04:30:52.502Z,4.87
2018-12-27T04:33:22.658Z,4.07
2018-12-27T04:35:52.756Z,3.30
2018-12-27T04:38:22.321Z,3.03
2018-12-27T04:40:52.337Z,11.13
2018-12-27T04:43:22.375Z,9.27
2018-12-27T04:45:52.363Z,9.63
2018-12-27T04:48:21.965Z,6.37
2018-12-27T04:50:52.846Z,5.50
2018-12-27T04:53:22.526Z,4.50
2018-12-27T04:55:52.535Z,6.03
2018-12-27T04:58:24.687Z,7.13
2018-12-27T05:00:55.224Z,7.87
2018-12-27T05:03:25.582Z,9.00
2018-12-27T05:05:56.352Z,6.40
2018-12-27T05:08:26.195Z,6.87
2018-12-27T05:10:55.937Z,6.90
2018-12-27T05:13:25.551Z,6.13
2018-12-27T05:15:55.083Z,7.17
2018-12-27T05:18:24.687Z,6.57
2018-12-27T05:20:54.796Z,5.83
2018-12-27T05:23:25.927Z,6.00
2018-12-27T05:25:56.898Z,6.60
2018-12-27T05:28:26.674Z,7.30
2018-12-27T05:30:56.069Z,7.33
2018-12-27T05:33:25.869Z,8.53
2018-12-27T05:35:56.132Z,8.17
2018-12-27T05:38:25.767Z,10.07
2018-12-27T05:40:54.874Z,8.20
2018-12-27T05:43:24.466Z,5.50
2018-12-27T05:45:54.106Z,5.70
2018-12-27T05:48:23.803Z,6.93
2018-12-27T05:50:54.539Z,6.20
2018-12-27T05:53:24.126Z,6.60
2018-12-27T05:55:55.411Z,6.07
2018-12-27T05:58:25.749Z,5.93
2018-12-27T06:00:55.528Z,6.83
2018-12-27T06:03:25.194Z,6.20
2018-12-27T06:05:55.617Z,6.33
2018-12-27T06:08:25.789Z,5.40
2018-12-27T06:10:56.744Z,5.70
2018-12-27T06:13:28.229Z,5.90
2018-12-27T06:15:57.789Z,4.80
2018-12-27T06:18:27.460Z,5.43
2018-12-27T06:20:57.297Z,5.63
2018-12-27T06:23:27.091Z,5.57
2018-12-27T06:25:56.877Z,5.97
2018-12-27T06:28:26.284Z,6.23
2018-12-27T06:30:56.768Z,5.50
2018-12-27T06:33:26.426Z,5.40
2018-12-27T06:35:56.851Z,5.80
2018-12-27T06:38:27.505Z,6.17
2018-12-27T06:40:58.444Z,6.83
2018-12-27T06:43:28.935Z,6.77
2018-12-27T06:45:58.520Z,7.83
2018-12-27T06:48:28.413Z,7.93
2018-12-27T06:50:58.058Z,8.83
2018-12-27T06:53:27.727Z,9.07
2018-12-27T06:55:57.492Z,9.00
2018-12-27T06:58:27.671Z,9.73
2018-12-27T07:00:57.601Z,8.77
2018-12-27T07:03:28.221Z,8.93
2018-12-27T07:05:57.882Z,9.57
2018-12-27T07:08:27.795Z,11.47
2018-12-27T07:10:57.568Z,10.53
2018-12-27T07:13:27.606Z,10.17
2018-12-27T07:15:58.389Z,10.73
2018-12-27T07:18:28.932Z,10.20
2018-12-27T07:20:58.982Z,10.17
2018-12-27T07:23:28.818Z,10.23
2018-12-27T07:25:58.731Z,11.13
2018-12-27T07:28:28.522Z,12.23
2018-12-27T07:30:58.320Z,11.20
2018-12-27T07:33:28.755Z,11.43
2018-12-27T07:35:58.374Z,11.30
2018-12-27T07:38:28.074Z,11.47
2018-12-27T07:40:57.678Z,11.43
2018-12-27T07:43:27.537Z,11.07
2018-12-27T07:45:57.472Z,11.83
2018-12-27T07:48:27.074Z,12.20
2018-12-27T07:50:56.664Z,11.70
2018-12-27T07:53:26.221Z,12.77
2018-12-27T07:55:55.655Z,11.93
2018-12-27T07:58:25.980Z,12.67
2018-12-27T08:00:55.733Z,12.57
2018-12-27T08:03:25.353Z,12.67
2018-12-27T08:05:54.876Z,11.93
2018-12-27T08:08:24.821Z,11.57
2018-12-27T08:10:54.520Z,11.90
2018-12-27T08:13:23.831Z,12.07
2018-12-27T08:15:56.413Z,10.33
2018-12-27T08:18:26.254Z,9.80
2018-12-27T08:20:56.829Z,10.77
2018-12-27T08:23:26.332Z,10.27
2018-12-27T08:25:56.639Z,10.90
2018-12-27T08:28:26.326Z,10.63
2018-12-27T08:30:57.675Z,10.07
2018-12-27T08:33:27.905Z,7.97
2018-12-27T08:35:57.226Z,7.20
2018-12-27T08:38:26.973Z,5.73
2018-12-27T08:40:57.192Z,6.10
2018-12-27T08:43:26.534Z,6.83
2018-12-27T08:45:55.903Z,7.00
2018-12-27T08:48:27.275Z,13.83
2018-12-27T08:50:57.566Z,12.00
2018-12-27T08:53:27.178Z,9.10
2018-12-27T08:55:57.704Z,8.97
2018-12-27T08:58:27.415Z,8.90
2018-12-27T09:00:58.591Z,7.93
2018-12-27T09:03:28.079Z,6.17
2018-12-27T09:05:57.647Z,4.60
2018-12-27T09:08:28.154Z,4.13
2018-12-27T09:10:58.278Z,6.37
2018-12-27T09:13:27.628Z,5.77
2018-12-27T09:15:57.405Z,3.40
2018-12-27T09:18:27.201Z,6.80
2018-12-27T09:20:56.895Z,6.27
2018-12-27T09:23:26.779Z,4.10
2018-12-27T09:25:56.944Z,4.20
2018-12-27T09:28:26.726Z,3.80
2018-12-27T09:30:57.385Z,10.27
2018-12-27T09:33:26.895Z,7.37
2018-12-27T09:35:56.368Z,6.40
2018-12-27T09:38:25.887Z,6.23
2018-12-27T09:40:55.618Z,7.00
2018-12-27T09:43:25.376Z,6.37
2018-12-27T09:45:54.806Z,4.73
2018-12-27T09:48:24.349Z,3.60
2018-12-27T09:50:54.932Z,3.57
2018-12-27T09:53:25.921Z,3.80
2018-12-27T09:55:55.977Z,3.87
2018-12-27T09:58:25.430Z,4.37
2018-12-27T10:00:55.910Z,3.37
2018-12-27T10:03:25.635Z,2.50
2018-12-27T10:05:55.062Z,3.13
2018-12-27T10:08:24.940Z,3.07
2018-12-27T10:10:54.522Z,2.90
2018-12-27T10:13:24.604Z,2.80
2018-12-27T10:15:54.139Z,3.20
2018-12-27T10:18:24.347Z,2.77
2018-12-27T10:20:54.328Z,2.80
2018-12-27T10:23:25.064Z,2.57
2018-12-27T10:25:54.710Z,2.60
2018-12-27T10:28:25.605Z,4.03
2018-12-27T10:30:59.715Z,2.40
2018-12-27T10:33:25.800Z,3.63
2018-12-27T10:35:56.034Z,3.50
2018-12-27T10:38:26.081Z,3.10
2018-12-27T10:40:56.122Z,2.90
2018-12-27T10:43:26.295Z,3.23
2018-12-27T10:45:56.066Z,3.30
2018-12-27T10:48:25.754Z,3.30
2018-12-27T10:50:55.270Z,4.33
2018-12-27T10:53:26.265Z,3.30
2018-12-27T10:55:56.384Z,3.40
2018-12-27T10:58:27.203Z,4.63
2018-12-27T11:00:58.050Z,5.10
2018-12-27T11:03:30.631Z,5.33
2018-12-27T11:05:57.660Z,5.13
2018-12-27T11:08:27.712Z,4.93
2018-12-27T11:10:57.209Z,5.97
2018-12-27T11:13:26.956Z,5.53
2018-12-27T11:15:56.291Z,4.87
2018-12-27T11:18:25.626Z,4.77
2018-12-27T11:20:55.565Z,5.27
2018-12-27T11:23:26.006Z,4.83
2018-12-27T11:25:55.585Z,5.37
2018-12-27T11:28:25.667Z,4.83
2018-12-27T11:30:55.398Z,4.70
2018-12-27T11:33:26.092Z,4.53
2018-12-27T11:35:56.315Z,4.57
2018-12-27T11:38:27.329Z,4.53
2018-12-27T11:40:56.994Z,4.43
2018-12-27T11:43:26.998Z,4.70
2018-12-27T11:45:56.857Z,4.50
2018-12-27T11:48:26.317Z,3.63
2018-12-27T11:50:56.673Z,3.40
2018-12-27T11:53:26.495Z,3.23
2018-12-27T11:55:56.542Z,3.03
2018-12-27T11:58:25.812Z,2.70
2018-12-27T12:00:55.378Z,2.50
2018-12-27T12:03:24.981Z,1.93
2018-12-27T12:05:54.989Z,2.33
2018-12-27T12:08:24.571Z,1.90
2018-12-27T12:10:54.263Z,2.40
2018-12-27T12:13:24.078Z,2.00
2018-12-27T12:15:53.944Z,2.70
2018-12-27T12:18:23.792Z,2.50
2018-12-27T12:20:53.262Z,2.50
2018-12-27T12:23:22.726Z,2.33
2018-12-27T12:25:52.306Z,2.40
2018-12-27T12:28:21.721Z,2.60
2018-12-27T12:30:51.417Z,2.60
2018-12-27T12:33:21.293Z,2.17
2018-12-27T12:35:51.722Z,2.50
2018-12-27T12:38:21.908Z,3.10
2018-12-27T12:40:51.394Z,3.17
2018-12-27T12:43:22.204Z,2.50
2018-12-27T12:45:52.013Z,2.60
2018-12-27T12:48:22.378Z,3.00
2018-12-27T12:50:51.907Z,2.50
2018-12-27T12:53:21.781Z,2.23
2018-12-27T12:55:51.478Z,4.33
2018-12-27T12:58:20.854Z,2.77
2018-12-27T13:00:51.158Z,3.00
2018-12-27T13:03:20.843Z,3.93
2018-12-27T13:05:50.575Z,4.77
2018-12-27T13:08:20.233Z,3.70
2018-12-27T13:10:49.815Z,3.20
2018-12-27T13:13:20.406Z,3.37
2018-12-27T13:15:49.846Z,3.80
2018-12-27T13:18:19.252Z,3.43
2018-12-27T13:20:49.597Z,4.10
2018-12-27T13:23:19.950Z,4.27
2018-12-27T13:25:50.283Z,4.20
2018-12-27T13:28:20.704Z,4.27
2018-12-27T13:30:50.280Z,4.50
2018-12-27T13:33:20.390Z,3.93
2018-12-27T13:35:49.833Z,3.57
2018-12-27T13:38:19.198Z,3.70
2018-12-27T13:40:48.994Z,3.40
2018-12-27T13:43:18.664Z,4.60
2018-12-27T13:45:48.256Z,3.43
2018-12-27T13:48:17.894Z,4.50
2018-12-27T13:50:47.941Z,3.20
2018-12-27T13:53:17.284Z,3.07
2018-12-27T13:55:46.633Z,3.60
2018-12-27T13:58:17.027Z,3.07
2018-12-27T14:00:46.257Z,3.83
2018-12-27T14:03:15.655Z,3.67
2018-12-27T14:05:44.584Z,4.13
2018-12-27T14:08:14.238Z,4.13
2018-12-27T14:10:43.579Z,4.17
2018-12-27T14:13:15.927Z,3.47
2018-12-27T14:15:46.832Z,5.30
2018-12-27T14:18:16.743Z,4.10
2018-12-27T14:20:47.127Z,4.10
2018-12-27T14:23:17.729Z,5.13
2018-12-27T14:25:47.059Z,3.63
2018-12-27T14:28:17.365Z,4.23
2018-12-27T14:30:48.738Z,5.50
2018-12-27T14:33:18.252Z,4.53
2018-12-27T14:35:48.304Z,4.20
2018-12-27T14:38:18.037Z,6.03
2018-12-27T14:40:47.907Z,4.97
2018-12-27T14:43:17.469Z,6.33
2018-12-27T14:45:46.977Z,6.37
2018-12-27T14:48:16.467Z,20.17
2018-12-27T14:50:45.914Z,7.90
2018-12-27T14:53:15.625Z,12.03
2018-12-27T14:55:45.278Z,6.53
2018-12-27T14:58:14.681Z,3.30
2018-12-27T15:00:44.319Z,3.83
2018-12-27T15:03:14.362Z,3.63
2018-12-27T15:05:43.857Z,3.97
2018-12-27T15:08:13.827Z,5.73
2018-12-27T15:10:43.387Z,3.30
2018-12-27T15:13:12.905Z,3.93
2018-12-27T15:15:43.724Z,3.60
2018-12-27T15:18:14.099Z,3.60
2018-12-27T15:20:43.700Z,3.33
2018-12-27T15:23:15.761Z,2.83
2018-12-27T15:25:45.391Z,2.87
2018-12-27T15:28:15.003Z,2.50
2018-12-27T15:30:44.600Z,2.60
2018-12-27T15:33:14.129Z,2.87
2018-12-27T15:35:43.920Z,2.60
2018-12-27T15:38:13.614Z,2.83
2018-12-27T15:40:44.985Z,2.90
2018-12-27T15:43:14.569Z,3.20
2018-12-27T15:45:44.296Z,2.17
2018-12-27T15:48:13.678Z,2.60
2018-12-27T15:50:43.867Z,2.00
2018-12-27T15:53:13.605Z,1.73
2018-12-27T15:55:43.118Z,2.60
2018-12-27T15:58:12.606Z,2.10
2018-12-27T16:00:42.087Z,2.40
2018-12-27T16:03:12.725Z,2.13
2018-12-27T16:05:42.224Z,2.57
2018-12-27T16:08:11.563Z,2.83
2018-12-27T16:10:40.957Z,3.07
2018-12-27T16:13:11.785Z,1.40
2018-12-27T16:15:41.364Z,1.87
2018-12-27T16:18:10.999Z,1.60
2018-12-27T16:20:41.324Z,1.30
2018-12-27T16:23:11.366Z,2.00
2018-12-27T16:25:41.394Z,2.07
2018-12-27T16:28:11.140Z,1.50
2018-12-27T16:30:41.052Z,1.87
2018-12-27T16:33:11.207Z,2.07
2018-12-27T16:35:42.537Z,1.17
2018-12-27T16:38:12.245Z,1.10
2018-12-27T16:40:42.159Z,1.27
2018-12-27T16:43:11.817Z,1.10
2018-12-27T16:45:41.609Z,1.23
2018-12-27T16:48:10.973Z,1.40
2018-12-27T16:50:40.230Z,1.50
2018-12-27T16:53:09.645Z,1.43
2018-12-27T16:55:39.319Z,1.50
2018-12-27T16:58:08.796Z,1.50
2018-12-27T17:00:38.470Z,1.90
2018-12-27T17:03:08.190Z,2.37
2018-12-27T17:05:37.913Z,2.73
2018-12-27T17:08:07.227Z,1.60
2018-12-27T17:10:37.147Z,1.67
2018-12-27T17:13:07.753Z,1.70
2018-12-27T17:15:37.411Z,1.90
2018-12-27T17:18:06.996Z,2.13
2018-12-27T17:20:36.531Z,2.37
2018-12-27T17:23:06.614Z,2.57
2018-12-27T17:25:36.074Z,1.80
2018-12-27T17:28:06.210Z,1.80
2018-12-27T17:30:35.706Z,2.37
2018-12-27T17:33:05.396Z,2.20
2018-12-27T17:35:34.751Z,2.20
2018-12-27T17:38:04.853Z,2.10
2018-12-27T17:40:35.056Z,2.73
2018-12-27T17:43:05.480Z,2.60
2018-12-27T17:45:35.166Z,2.50
2018-12-27T17:48:06.445Z,2.70
2018-12-27T17:50:36.154Z,2.97
2018-12-27T17:53:05.790Z,2.70
2018-12-27T17:55:35.481Z,2.97
2018-12-27T17:58:04.967Z,3.50
2018-12-27T18:00:34.388Z,3.37
2018-12-27T18:03:04.143Z,3.23
2018-12-27T18:05:33.626Z,3.37
2018-12-27T18:08:03.820Z,5.17
2018-12-27T18:10:33.473Z,3.80
2018-12-27T18:13:02.901Z,3.50
2018-12-27T18:15:33.062Z,8.37
2018-12-27T18:18:03.618Z,5.93
2018-12-27T18:20:33.157Z,10.90
2018-12-27T18:23:03.442Z,11.10
2018-12-27T18:25:34.485Z,4.93
2018-12-27T18:28:05.637Z,4.13
2018-12-27T18:30:36.348Z,4.33
2018-12-27T18:33:06.402Z,4.40
2018-12-27T18:35:36.131Z,5.50
2018-12-27T18:38:05.997Z,4.13
2018-12-27T18:40:35.778Z,4.50
2018-12-27T18:43:05.639Z,5.53
2018-12-27T18:45:35.360Z,4.67
2018-12-27T18:48:05.203Z,4.33
2018-12-27T18:50:34.764Z,5.40
2018-12-27T18:53:05.074Z,4.27
2018-12-27T18:55:35.615Z,3.93
2018-12-27T18:58:05.293Z,3.67
2018-12-27T19:00:34.735Z,3.47
2018-12-27T19:03:05.678Z,4.07
2018-12-27T19:05:35.926Z,3.37
2018-12-27T19:08:05.389Z,3.60
2018-12-27T19:10:34.982Z,3.00
2018-12-27T19:13:05.392Z,3.50
2018-12-27T19:15:36.412Z,3.87
2018-12-27T19:18:07.748Z,3.93
2018-12-27T19:20:37.639Z,4.37
2018-12-27T19:23:07.404Z,3.93
2018-12-27T19:25:36.987Z,4.10
2018-12-27T19:28:07.367Z,5.23
2018-12-27T19:30:38.283Z,5.20
2018-12-27T19:33:11.037Z,5.37
2018-12-27T19:35:41.393Z,5.53
2018-12-27T19:38:10.937Z,4.90
2018-12-27T19:40:41.528Z,3.33
2018-12-27T19:43:11.601Z,4.77
2018-12-27T19:45:40.984Z,3.67
2018-12-27T19:48:10.480Z,3.47
2018-12-27T19:50:39.848Z,4.10
2018-12-27T19:53:09.414Z,4.10
2018-12-27T19:55:39.034Z,4.30
2018-12-27T19:58:10.588Z,4.23
2018-12-27T20:00:40.948Z,4.87
2018-12-27T20:05:44.765Z,3.70
2018-12-27T20:08:15.792Z,8.57
2018-12-27T20:10:46.386Z,3.83
2018-12-27T20:13:15.833Z,3.50
2018-12-27T20:15:46.066Z,3.50
2018-12-27T20:18:15.607Z,4.10
2018-12-27T20:20:45.061Z,3.87
2018-12-27T20:23:15.431Z,6.63
2018-12-27T20:25:46.595Z,5.10
2018-12-27T20:28:15.931Z,5.07
2018-12-27T20:30:45.564Z,7.20
2018-12-27T20:33:15.195Z,3.70
2018-12-27T20:35:44.675Z,5.70
2018-12-27T20:38:14.631Z,4.13
2018-12-27T20:40:44.538Z,4.03
2018-12-27T20:43:15.156Z,3.83
2018-12-27T20:45:45.346Z,3.40
2018-12-27T20:48:14.679Z,3.40
2018-12-27T20:50:44.922Z,4.20
2018-12-27T20:53:14.479Z,4.00
2018-12-27T20:55:44.002Z,3.23
2018-12-27T20:58:15.156Z,3.60
2018-12-27T21:00:45.945Z,3.70
2018-12-27T21:03:15.597Z,4.63
2018-12-27T21:05:45.283Z,3.00
2018-12-27T21:08:15.138Z,3.47
2018-12-27T21:10:45.149Z,2.77
2018-12-27T21:13:15.872Z,3.13
2018-12-27T21:15:45.887Z,3.30
2018-12-27T21:18:16.271Z,3.30
2018-12-27T21:20:46.366Z,3.00
2018-12-27T21:23:16.371Z,3.93
2018-12-27T21:25:45.803Z,2.80
2018-12-27T21:28:16.437Z,2.70
2018-12-27T21:30:45.763Z,2.77
2018-12-27T21:33:17.727Z,2.60
2018-12-27T21:35:51.768Z,2.67
2018-12-27T21:38:21.725Z,3.00
2018-12-27T21:40:53.192Z,2.90
2018-12-27T21:43:23.153Z,2.50
2018-12-27T21:45:52.777Z,2.57
2018-12-27T21:48:22.673Z,2.83
2018-12-27T21:50:52.978Z,3.47
2018-12-27T21:53:24.373Z,2.60
2018-12-27T21:55:54.893Z,2.77
2018-12-27T21:58:26.131Z,2.70
2018-12-27T22:00:55.773Z,2.50
2018-12-27T22:03:26.076Z,2.90
2018-12-27T22:05:56.088Z,3.63
2018-12-27T22:08:28.695Z,3.30
2018-12-27T22:10:56.321Z,3.33
2018-12-27T22:13:25.835Z,2.97
2018-12-27T22:15:57.008Z,3.30
2018-12-27T22:18:27.250Z,3.47
2018-12-27T22:20:56.798Z,3.30
2018-12-27T22:23:26.467Z,2.63
2018-12-27T22:25:56.139Z,2.60
2018-12-27T22:28:26.038Z,2.53
2018-12-27T22:30:56.670Z,2.60
2018-12-27T22:33:26.179Z,2.73
2018-12-27T22:35:56.852Z,2.47
2018-12-27T22:38:26.909Z,2.30
2018-12-27T22:40:56.622Z,2.43
2018-12-27T22:43:26.229Z,1.93
2018-12-27T22:45:57.295Z,2.33
2018-12-27T22:48:27.742Z,2.60
2018-12-27T22:50:57.730Z,2.30
2018-12-27T22:53:27.186Z,2.60
2018-12-27T22:55:56.943Z,2.10
2018-12-27T22:58:28.820Z,2.03
2018-12-27T23:00:58.698Z,2.17
2018-12-27T23:03:28.031Z,2.57
2018-12-27T23:05:57.806Z,2.40
2018-12-27T23:08:27.831Z,1.80
2018-12-27T23:10:57.097Z,1.87
2018-12-27T23:13:26.547Z,1.80
2018-12-27T23:15:55.982Z,1.93
2018-12-27T23:18:26.212Z,1.90
2018-12-27T23:20:55.678Z,1.93
2018-12-27T23:23:25.188Z,2.20
2018-12-27T23:25:55.666Z,1.63
2018-12-27T23:28:27.004Z,1.53
2018-12-27T23:30:57.364Z,1.50
2018-12-27T23:33:26.872Z,1.40
2018-12-27T23:35:56.440Z,1.80
2018-12-27T23:38:26.424Z,1.97
2018-12-27T23:40:56.998Z,2.17
2018-12-27T23:43:27.083Z,1.97
2018-12-27T23:45:56.731Z,2.03
2018-12-27T23:48:26.672Z,2.00
2018-12-27T23:50:56.233Z,1.20
2018-12-27T23:53:26.453Z,1.13
2018-12-27T23:55:57.150Z,1.20
2018-12-27T23:58:26.947Z,2.50
